Weather at Buffalo Airfield

Public forecast

Using degrees Fahrenheit for public forecast. Weather courtesy of forecast.io.

Closest aviation weather report (METAR) to Buffalo Airfield

Closest report is Buffalo Niagara International Airport, 4.8 nm (8.8 km) N.

2024/05/30 19:54 (retrieved 22 minutes ago)

KBUF 301954Z 34012G15KT 10SM FEW065 18/02 A3014 RMK AO2 SLP207 T01830017

Closest aviation forecast (TAF) to Buffalo Airfield

Closest forecast is Buffalo Niagara International Airport, 4.8 nm (8.8 km) N.

2024/05/30 18:30 (retrieved 2 hours ago)

TAF KBUF 301729Z 3018/3118 35012KT P6SM FEW050 FM302200 33007KT P6SM SKC FM310100 30004KT P6SM SKC FM311500 27006KT P6SM SKC